Terminal Aerodrome Forecast
Issued by NWS

Home | Current Version | Previous Version | Text Only | Print | Product List | Glossary Off
Versions: 1 2 3 4 5 6 7 8 9 10 11 12 13 14 15 16 17 18 19 20

000
FTUS43 KGRB 260901 AAA
TAFCWA
TAF AMD
KCWA 260901Z 2609/2706 18004KT 6SM BR SCT009 BKN200
      TEMPO 2609/2613 1 1/2SM BR BKN009
     FM261400 21009KT P6SM BKN020 BKN100
     FM261700 22008KT P6SM -SHRA BKN035 OVC070
     FM262100 26006KT 4SM SHRA BKN015 OVC035
      TEMPO 2623/2703 1 1/2SM +RA BKN006=

USA.gov is the U.S. government's official web portal to all federal, state and local government web resources and services.